Detalii statie GENERAL AGRO [00001CEA]

Toti senzorii

Date Temperatura solului [C]Precipitatii [mm]Voltaj baterie [mV]HC Air temperature [C]HC Relative humidity [%]Punctul de roua [C]
medieminmaxsumaultimamedieminmaxmediemediemin
2020-01-21 22:00:00 2.8 2.8 2.9 0 6640 -1.32 -2.29 -0.36 60.71 -7.9 -8
2020-01-21 22:30:00 2.8 2.7 2.9 0 6630 -2.68 -2.87 -2.35 66.19 -8 -8.5
2020-01-21 23:00:00 2.7 2.7 2.8 0 6630 -1.98 -2.08 -1.9 67.85 -7 -7.4
2020-01-21 23:30:00 2.7 2.6 2.8 0 6620 -2.27 -2.51 -1.91 68.28 -7.3 -7.7
2020-01-22 00:00:00 2.6 2.6 2.7 0 6620 -2.48 -3.16 -1.89 70.91 -6.9 -7.7
2020-01-22 00:30:00 2.6 2.6 2.7 0 6610 -2.48 -3.11 -1.71 69.83 -7.2 -7.5
2020-01-22 01:00:00 2.5 2.5 2.6 0 6620 -2.58 -2.95 -1.99 73.51 -6.5 -7.1
2020-01-22 01:30:00 2.5 2.5 2.6 0 6610 -1.71 -1.84 -1.57 72.76 -5.9 -6
2020-01-22 02:00:00 2.5 2.5 2.5 0 6620 -1.66 -1.82 -1.57 70.51 -6.2 -6.5
2020-01-22 02:30:00 2.4 2.4 2.5 0 6600 -2.02 -2.14 -1.88 71.58 -6.3 -6.5
2020-01-22 03:00:00 2.3 2.3 2.4 0 6600 -2.72 -3.1 -2.46 72.81 -6.8 -7.1
2020-01-22 03:30:00 2.4 2.3 2.5 0 6600 -3.55 -3.71 -3.2 74.91 -7.3 -7.4
2020-01-22 04:00:00 2.3 2.3 2.3 0 6610 -2.84 -3.53 -1.92 76.12 -6.3 -7
2020-01-22 04:30:00 2.2 2.2 2.3 0 6590 -2.1 -2.38 -1.92 73.05 -6.2 -6.4
2020-01-22 05:00:00 2.3 2.3 2.3 0 6600 -2.49 -2.59 -2.38 73.74 -6.5 -6.6
2020-01-22 05:30:00 2.2 2.1 2.3 0 6590 -2.8 -2.89 -2.69 74.41 -6.6 -6.8
2020-01-22 06:00:00 2.1 2.1 2.2 0 6590 -3.01 -3.17 -2.76 74.25 -6.8 -7
2020-01-22 06:30:00 2.1 2.1 2.2 0 6590 -3.57 -4.18 -3.03 76.01 -7.1 -7.4
2020-01-22 07:00:00 2 2 2.1 0 6600 -3.7 -4.14 -3.43 79.78 -6.6 -7.3
2020-01-22 07:30:00 2 2 2.1 0 6590 -4 -4.16 -3.84 81.03 -6.7 -6.9
2020-01-22 08:00:00 2 2 2.1 0 6590 -3.87 -4.39 -2.89 82.81 -6.2 -6.8
2020-01-22 08:30:00 1.9 1.9 2 0 6630 -2.74 -3.08 -2.31 80.02 -5.6 -5.9
2020-01-22 09:00:00 1.9 1.9 2 0 6748 -1.8 -2.13 -1.53 76.18 -5.4 -5.5
2020-01-22 09:30:00 1.9 1.8 2 0 6864 -1.07 -1.31 -0.86 72.8 -5.2 -5.5
2020-01-22 10:00:00 1.9 1.9 2 0 6932 -0.35 -0.57 -0.18 68.94 -5.3 -5.4
2020-01-22 10:30:00 1.9 1.8 2 0 6962 0.46 -0.1 0.79 65.58 -5.2 -5.4
2020-01-22 11:00:00 2 1.9 2.1 0 6962 1.14 0.9 1.45 62.91 -5.1 -5.2
2020-01-22 11:30:00 2 2 2.1 0 6962 2.1 1.8 2.26 59.83 -4.9 -5.3
2020-01-22 12:00:00 2.2 2.1 2.4 0 6952 3.16 2.83 3.56 57.12 -4.5 -4.9
2020-01-22 12:30:00 2.3 2.3 2.5 0 6922 4.21 3.6 4.77 54.67 -4.1 -4.6
2020-01-22 13:00:00 2.4 2.4 2.6 0 6904 5.13 4.48 5.84 51.4 -4.1 -4.5
2020-01-22 13:30:00 2.5 2.5 2.7 0 6884 6.63 5.59 7.24 47.5 -3.8 -4.5
2020-01-22 14:00:00 2.7 2.6 2.8 0 6834 7.79 7.27 8.33 43.18 -4 -5
2020-01-22 14:30:00 2.8 2.8 2.9 0 6816 7.78 7.11 8.59 41.82 -4.4 -4.8
2020-01-22 15:00:00 2.9 2.9 3.1 0 6806 8.19 7.76 8.43 41.28 -4.2 -4.6
2020-01-22 15:30:00 3.1 3.1 3.2 0 6786 7.9 7.37 8.18 41.43 -4.4 -4.7
2020-01-22 16:00:00 3.1 3.1 3.2 0 6776 6.69 6.04 7.18 45.1 -4.4 -4.6
2020-01-22 16:30:00 3.2 3.2 3.2 0 6766 5.64 5.52 5.88 47.21 -4.8 -5.1
2020-01-22 17:00:00 3.2 3.1 3.3 0 6748 4.99 4.83 5.42 47.59 -5.2 -5.4
2020-01-22 17:30:00 3.2 3.1 3.3 0 6748 3.43 2.67 4.49 52.35 -5.4 -5.7
2020-01-22 18:00:00 3.1 3 3.3 0 6748 2.14 1.9 2.26 57.46 -5.3 -5.6
2020-01-22 18:30:00 3 3 3.1 0 6728 0.89 0.18 1.52 61.09 -5.7 -6.4
2020-01-22 19:00:00 3 2.9 3.1 0 6738 0.56 0.31 0.82 63.47 -5.6 -5.9
2020-01-22 19:30:00 2.9 2.8 3 0 6728 1.13 0.43 2.16 61.69 -5.4 -5.9
2020-01-22 20:00:00 2.8 2.8 2.9 0 6738 2.16 1.5 3.47 56.6 -5.6 -6.4
2020-01-22 20:30:00 2.8 2.7 2.9 0 6718 2.41 0.81 3.17 53.28 -6.1 -6.4
2020-01-22 21:00:00 2.7 2.7 2.8 0 6718 1.55 1.09 2.17 57.36 -6 -6.7
2020-01-22 21:30:00 2.7 2.6 2.8 0 6718 0.92 0.73 1.13 57.91 -6.3 -6.7